Time,TemperatureF,DewpointF,PressureIn,WindDirection,WindDirectionDegrees,WindSpeedMPH,WindSpeedGustMPH,Humidity,HourlyPrecipIn,Conditions,Clouds,dailyrainin,SolarRadiationWatts/m^2,SoftwareType,DateUTC
2013-08-06 02:31:00,63.7,49.3,29.95,NNW,327,1.3,1.3,59,0.00,,---,0.00,2.90,VWS V14.01,2013-08-06 09:31:00,
2013-08-06 02:36:00,63.5,49.5,29.95,NNW,328,1.1,1.1,60,0.00,,---,0.00,2.37,VWS V14.01,2013-08-06 09:36:00,
2013-08-06 02:41:00,63.3,49.5,29.95,NNW,343,1.8,2.0,61,0.00,,---,0.00,0.00,VWS V14.01,2013-08-06 09:41:00,
2013-08-06 02:46:00,63.3,49.4,29.95,WNW,296,1.6,1.6,60,0.00,,---,0.00,0.00,VWS V14.01,2013-08-06 09:46:00,
2013-08-06 02:51:00,63.1,49.6,29.95,WNW,291,2.0,2.0,61,0.00,,---,0.00,0.99,VWS V14.01,2013-08-06 09:51:00,
2013-08-06 02:56:00,62.8,49.3,29.95,WNW,294,1.1,1.1,61,0.00,,---,0.00,0.00,VWS V14.01,2013-08-06 09:56:00,
2013-08-06 03:01:00,62.6,49.1,29.95,West,273,2.5,2.5,61,0.00,,---,0.00,1.30,VWS V14.01,2013-08-06 10:01:00,
2013-08-06 03:06:00,62.4,49.0,29.95,West,271,1.1,1.1,61,0.00,,---,0.00,0.00,VWS V14.01,2013-08-06 10:06:00,
2013-08-06 03:11:00,62.4,48.9,29.95,West,279,3.6,3.6,61,0.00,,---,0.00,0.00,VWS V14.01,2013-08-06 10:11:00,
2013-08-06 03:16:00,62.2,49.1,29.95,WNW,301,3.8,3.8,62,0.00,,---,0.00,0.00,VWS V14.01,2013-08-06 10:16:00,
2013-08-06 03:21:00,62.1,49.1,29.95,WNW,302,2.0,2.0,62,0.00,,---,0.00,0.08,VWS V14.01,2013-08-06 10:21:00,
2013-08-06 03:26:00,62.1,49.3,29.95,NW,304,1.1,2.2,63,0.00,,---,0.00,0.31,VWS V14.01,2013-08-06 10:26:00,
2013-08-06 03:31:00,61.9,49.6,29.95,NW,310,1.3,2.2,64,0.00,,---,0.00,0.00,VWS V14.01,2013-08-06 10:31:00,
2013-08-06 03:36:00,61.7,49.8,29.95,NW,307,1.8,1.8,65,0.00,,---,0.00,0.00,VWS V14.01,2013-08-06 10:36:00,
2013-08-06 03:41:00,61.7,50.0,29.95,NW,315,1.3,1.3,65,0.00,,---,0.00,0.00,VWS V14.01,2013-08-06 10:41:00,
2013-08-06 03:46:00,61.5,49.7,29.95,NW,306,2.5,2.5,65,0.00,,---,0.00,0.00,VWS V14.01,2013-08-06 10:46:00,
2013-08-06 03:51:00,61.5,49.9,29.95,NW,310,2.9,2.9,66,0.00,,---,0.00,0.00,VWS V14.01,2013-08-06 10:51:00,
2013-08-06 03:56:00,61.5,49.8,29.95,NW,305,3.1,3.1,65,0.00,,---,0.00,2.90,VWS V14.01,2013-08-06 10:56:00,
2013-08-06 04:01:00,61.5,49.6,29.95,NW,315,2.2,2.2,65,0.00,,---,0.00,0.00,VWS V14.01,2013-08-06 11:01:00,
2013-08-06 04:06:00,61.5,48.7,29.95,NW,311,3.4,4.0,63,0.00,,---,0.00,0.00,VWS V14.01,2013-08-06 11:06:00,
2013-08-06 04:11:00,61.7,48.7,29.95,WNW,300,4.3,4.3,62,0.00,,---,0.00,0.00,VWS V14.01,2013-08-06 11:11:00,
2013-08-06 04:16:00,61.9,48.4,29.95,West,265,2.0,4.5,61,0.00,,---,0.00,0.00,VWS V14.01,2013-08-06 11:16:00,
2013-08-06 04:21:00,61.9,48.3,29.95,NW,309,1.1,4.5,61,0.00,,---,0.00,0.00,VWS V14.01,2013-08-06 11:21:00,
2013-08-06 04:26:00,61.9,48.0,29.95,WSW,247,0.4,4.5,60,0.00,,---,0.00,0.92,VWS V14.01,2013-08-06 11:26:00,
2013-08-06 04:31:00,61.7,48.0,29.95,South,175,0.2,4.5,61,0.00,,---,0.00,0.00,VWS V14.01,2013-08-06 11:31:00,
2013-08-06 04:36:00,61.9,49.3,29.95,West,260,0.9,4.5,63,0.00,,---,0.00,0.00,VWS V14.01,2013-08-06 11:36:00,
2013-08-06 04:41:00,61.7,49.8,29.95,NNE,12,0.9,4.5,65,0.00,,---,0.00,0.00,VWS V14.01,2013-08-06 11:41:00,
2013-08-06 04:46:00,61.3,49.8,29.95,West,270,0.2,4.5,66,0.00,,---,0.00,0.00,VWS V14.01,2013-08-06 11:46:00,
2013-08-06 04:51:00,61.0,48.3,29.95,NW,313,3.6,4.5,63,0.00,,---,0.00,0.00,VWS V14.01,2013-08-06 11:51:00,
2013-08-06 04:56:00,61.2,48.4,29.95,NW,305,2.5,4.5,63,0.00,,---,0.00,0.00,VWS V14.01,2013-08-06 11:56:00,
2013-08-06 05:01:00,61.0,48.6,29.95,WNW,289,2.5,4.5,64,0.00,,---,0.00,0.00,VWS V14.01,2013-08-06 12:01:00,
2013-08-06 05:06:00,61.0,49.0,29.95,WNW,294,1.8,2.5,65,0.00,,---,0.00,0.00,VWS V14.01,2013-08-06 12:06:00,
2013-08-06 05:11:00,60.8,49.1,29.95,West,277,1.3,2.0,65,0.00,,---,0.00,1.22,VWS V14.01,2013-08-06 12:11:00,
2013-08-06 05:16:00,60.4,49.2,29.96,SW,226,2.5,2.5,66,0.00,,---,0.00,0.00,VWS V14.01,2013-08-06 12:16:00,
2013-08-06 05:21:00,60.3,49.5,29.96,SSW,204,2.9,2.9,68,0.00,,---,0.00,0.00,VWS V14.01,2013-08-06 12:21:00,
2013-08-06 05:26:00,59.9,49.6,29.96,WNW,296,0.9,0.9,69,0.00,,---,0.00,0.00,VWS V14.01,2013-08-06 12:26:00,
2013-08-06 05:31:00,59.5,49.7,29.96,SSW,204,0.7,0.7,70,0.00,,---,0.00,0.00,VWS V14.01,2013-08-06 12:31:00,
2013-08-06 05:36:00,59.4,49.4,29.96,West,278,2.7,2.7,70,0.00,,---,0.00,0.00,VWS V14.01,2013-08-06 12:36:00,
2013-08-06 05:41:00,59.2,49.6,29.96,SSW,194,0.9,0.9,70,0.00,,---,0.00,2.82,VWS V14.01,2013-08-06 12:41:00,
2013-08-06 05:46:00,59.2,49.5,29.96,WSW,245,1.6,2.0,70,0.00,,---,0.00,0.00,VWS V14.01,2013-08-06 12:46:00,
2013-08-06 05:51:00,59.2,49.5,29.96,WNW,301,1.8,1.8,70,0.00,,---,0.00,0.84,VWS V14.01,2013-08-06 12:51:00,
2013-08-06 05:56:00,59.0,49.4,29.96,NW,324,1.3,1.3,70,0.00,,---,0.00,3.59,VWS V14.01,2013-08-06 12:56:00,
2013-08-06 06:01:00,58.8,49.4,29.96,NNW,333,0.9,0.9,71,0.00,,---,0.00,1.83,VWS V14.01,2013-08-06 13:01:00,
2013-08-06 06:06:00,58.6,49.3,29.96,SE,131,0.7,0.7,71,0.00,,---,0.00,7.71,VWS V14.01,2013-08-06 13:06:00,
2013-08-06 06:11:00,58.6,49.4,29.96,North,353,0.7,0.7,71,0.00,,---,0.00,16.56,VWS V14.01,2013-08-06 13:11:00,
2013-08-06 06:16:00,58.6,49.4,29.97,North,0,1.1,1.1,71,0.00,,---,0.00,14.65,VWS V14.01,2013-08-06 13:16:00,
2013-08-06 06:21:00,58.8,49.5,29.97,NW,308,1.8,1.8,71,0.00,,---,0.00,16.48,VWS V14.01,2013-08-06 13:21:00,
2013-08-06 06:26:00,59.0,49.5,29.97,WSW,251,1.3,1.3,71,0.00,,---,0.00,23.58,VWS V14.01,2013-08-06 13:26:00,
2013-08-06 06:31:00,59.2,49.6,29.97,WSW,255,0.2,0.2,70,0.00,,---,0.00,27.47,VWS V14.01,2013-08-06 13:31:00,
2013-08-06 06:36:00,59.4,49.6,29.97,WNW,290,0.7,0.7,70,0.00,,---,0.00,34.11,VWS V14.01,2013-08-06 13:36:00,
2013-08-06 06:41:00,59.9,49.7,29.98,WNW,284,2.0,2.0,69,0.00,,---,0.00,33.81,VWS V14.01,2013-08-06 13:41:00,
2013-08-06 06:46:00,60.1,49.5,29.98,WNW,293,3.4,3.4,68,0.00,,---,0.00,43.19,VWS V14.01,2013-08-06 13:46:00,
2013-08-06 06:51:00,59.9,49.5,29.98,WNW,294,3.6,3.6,68,0.00,,---,0.00,51.74,VWS V14.01,2013-08-06 13:51:00,
2013-08-06 06:56:00,59.9,49.5,29.98,West,280,2.0,2.7,68,0.00,,---,0.00,51.97,VWS V14.01,2013-08-06 13:56:00,
2013-08-06 07:01:00,60.4,50.1,29.98,NW,318,0.9,0.9,69,0.00,,---,0.00,65.48,VWS V14.01,2013-08-06 14:01:00,
2013-08-06 07:06:00,60.6,50.6,29.98,North,5,1.8,3.1,69,0.00,,---,0.00,66.54,VWS V14.01,2013-08-06 14:06:00,
2013-08-06 07:11:00,60.6,50.4,29.98,NW,316,3.4,3.4,69,0.00,,---,0.00,75.17,VWS V14.01,2013-08-06 14:11:00,
2013-08-06 07:16:00,60.8,50.8,29.98,NNW,341,2.7,2.7,70,0.00,,---,0.00,85.39,VWS V14.01,2013-08-06 14:16:00,
2013-08-06 07:21:00,60.4,50.7,29.98,NW,326,3.4,3.4,70,0.00,,---,0.00,86.69,VWS V14.01,2013-08-06 14:21:00,
2013-08-06 07:26:00,60.8,50.9,29.98,NW,316,3.1,3.1,70,0.00,,---,0.00,95.85,VWS V14.01,2013-08-06 14:26:00,
2013-08-06 07:31:00,61.2,50.8,29.98,NW,311,3.4,3.4,69,0.00,,---,0.00,98.90,VWS V14.01,2013-08-06 14:31:00,
2013-08-06 07:36:00,61.5,50.5,29.98,NW,308,4.3,4.3,67,0.00,,---,0.00,114.16,VWS V14.01,2013-08-06 14:36:00,
2013-08-06 07:41:00,61.9,50.4,29.98,North,10,1.8,1.8,66,0.00,,---,0.00,118.74,VWS V14.01,2013-08-06 14:41:00,
2013-08-06 07:46:00,62.4,50.7,29.98,NNW,330,2.5,2.5,66,0.00,,---,0.00,132.02,VWS V14.01,2013-08-06 14:46:00,
2013-08-06 07:51:00,62.4,50.5,29.98,East,81,4.7,4.7,65,0.00,,---,0.00,141.41,VWS V14.01,2013-08-06 14:51:00,
2013-08-06 07:56:00,60.4,50.0,29.98,East,79,2.9,2.9,68,0.00,,---,0.00,149.42,VWS V14.01,2013-08-06 14:56:00,
2013-08-06 08:01:00,59.0,50.0,29.98,East,97,4.9,5.1,72,0.00,,---,0.00,155.45,VWS V14.01,2013-08-06 15:01:00,
2013-08-06 08:06:00,57.9,50.2,29.98,ESE,118,4.7,4.7,75,0.00,,---,0.00,165.14,VWS V14.01,2013-08-06 15:06:00,
2013-08-06 08:11:00,57.9,50.6,29.99,East,98,3.1,4.3,76,0.00,,---,0.00,168.35,VWS V14.01,2013-08-06 15:11:00,
2013-08-06 08:16:00,57.9,50.9,29.99,ESE,111,1.6,1.6,77,0.00,,---,0.00,184.75,VWS V14.01,2013-08-06 15:16:00,
2013-08-06 08:21:00,58.3,50.9,29.99,SE,139,3.4,3.4,76,0.00,,---,0.00,186.66,VWS V14.01,2013-08-06 15:21:00,
2013-08-06 08:26:00,59.0,51.1,29.99,ESE,111,3.4,3.4,75,0.00,,---,0.00,198.57,VWS V14.01,2013-08-06 15:26:00,
2013-08-06 08:31:00,59.0,50.8,29.99,SE,124,4.5,4.5,74,0.00,,---,0.00,201.39,VWS V14.01,2013-08-06 15:31:00,
2013-08-06 08:36:00,59.0,50.8,29.99,South,169,2.0,2.0,74,0.00,,---,0.00,214.21,VWS V14.01,2013-08-06 15:36:00,
2013-08-06 08:41:00,59.0,50.7,29.99,ESE,104,4.5,4.5,74,0.00,,---,0.00,229.47,VWS V14.01,2013-08-06 15:41:00,
2013-08-06 08:46:00,59.0,50.7,29.99,ESE,114,1.1,2.7,74,0.00,,---,0.00,233.75,VWS V14.01,2013-08-06 15:46:00,
2013-08-06 08:51:00,59.4,50.6,29.99,East,101,5.4,5.4,73,0.00,,---,0.00,241.83,VWS V14.01,2013-08-06 15:51:00,
2013-08-06 08:56:00,59.4,50.2,30.00,ESE,102,5.1,5.1,72,0.00,,---,0.00,251.83,VWS V14.01,2013-08-06 15:56:00,
2013-08-06 09:01:00,59.4,50.2,30.00,ESE,111,6.0,6.3,72,0.00,,---,0.00,268.01,VWS V14.01,2013-08-06 16:01:00,
2013-08-06 09:06:00,59.5,50.4,30.00,East,90,2.9,6.3,72,0.00,,---,0.00,275.72,VWS V14.01,2013-08-06 16:06:00,
2013-08-06 09:11:00,60.1,50.4,30.00,East,90,6.5,6.5,70,0.00,,---,0.00,286.86,VWS V14.01,2013-08-06 16:11:00,
2013-08-06 09:16:00,60.6,50.5,30.00,ESE,120,4.5,6.5,69,0.00,,---,0.00,291.59,VWS V14.01,2013-08-06 16:16:00,
2013-08-06 09:21:00,60.6,50.6,30.00,SE,146,2.2,6.5,70,0.00,,---,0.00,301.97,VWS V14.01,2013-08-06 16:21:00,
2013-08-06 09:26:00,60.3,50.3,30.00,SE,137,4.0,6.5,70,0.00,,---,0.00,310.74,VWS V14.01,2013-08-06 16:26:00,
2013-08-06 09:31:00,61.3,50.7,30.00,East,101,4.7,6.5,68,0.00,,---,0.00,325.17,VWS V14.01,2013-08-06 16:31:00,
2013-08-06 09:36:00,62.1,50.5,30.00,SE,131,3.4,6.5,66,0.00,,---,0.00,317.31,VWS V14.01,2013-08-06 16:36:00,
2013-08-06 09:41:00,61.2,50.0,30.00,ESE,110,4.9,6.5,67,0.00,,---,0.00,342.49,VWS V14.01,2013-08-06 16:41:00,
2013-08-06 09:46:00,61.3,50.2,30.00,SE,132,4.5,6.5,67,0.00,,---,0.00,347.60,VWS V14.01,2013-08-06 16:46:00,
2013-08-06 09:51:00,61.5,50.3,30.00,ESE,113,6.0,6.5,66,0.00,,---,0.00,356.61,VWS V14.01,2013-08-06 16:51:00,
2013-08-06 09:56:00,61.2,50.6,29.99,East,81,2.9,6.5,68,0.00,,---,0.00,361.80,VWS V14.01,2013-08-06 16:56:00,
2013-08-06 10:01:00,62.2,50.7,29.99,SE,137,4.7,6.5,66,0.00,,---,0.00,369.35,VWS V14.01,2013-08-06 17:01:00,
2013-08-06 10:06:00,62.6,50.7,29.99,SSE,156,2.2,2.2,65,0.00,,---,0.00,377.37,VWS V14.01,2013-08-06 17:06:00,
2013-08-06 10:11:00,61.5,50.3,29.99,ESE,108,6.5,6.5,67,0.00,,---,0.00,393.62,VWS V14.01,2013-08-06 17:11:00,
2013-08-06 10:16:00,61.2,50.6,29.99,ESE,103,4.3,4.3,68,0.00,,---,0.00,397.21,VWS V14.01,2013-08-06 17:16:00,
2013-08-06 10:21:00,61.5,50.7,29.99,ESE,114,7.4,7.4,68,0.00,,---,0.00,403.92,VWS V14.01,2013-08-06 17:21:00,
2013-08-06 10:26:00,61.7,50.6,29.99,ESE,110,6.9,6.9,67,0.00,,---,0.00,413.00,VWS V14.01,2013-08-06 17:26:00,
2013-08-06 10:27:00,62.2,51.0,29.99,East,96,4.5,4.5,67,0.00,,---,0.00,413.61,VWS V14.01,2013-08-06 17:27:00,
2013-08-06 10:32:00,62.4,50.8,29.99,ESE,107,3.1,3.4,66,0.00,,---,0.00,418.42,VWS V14.01,2013-08-06 17:32:00,
2013-08-06 10:37:00,63.0,51.1,29.99,SE,127,5.4,5.4,65,0.00,,---,0.00,416.74,VWS V14.01,2013-08-06 17:37:00,
2013-08-06 10:42:00,62.8,50.6,29.99,SE,135,5.4,7.2,64,0.00,,---,0.00,430.78,VWS V14.01,2013-08-06 17:42:00,
2013-08-06 10:51:00,63.0,50.1,29.99,East,99,6.9,6.9,63,0.00,,---,0.00,449.94,VWS V14.01,2013-08-06 17:51:00,
2013-08-06 10:56:00,62.8,50.3,29.99,ESE,116,6.7,6.7,64,0.00,,---,0.00,456.27,VWS V14.01,2013-08-06 17:56:00,
2013-08-06 11:01:00,62.8,50.3,29.99,East,99,7.6,7.6,64,0.00,,---,0.00,459.33,VWS V14.01,2013-08-06 18:01:00,
2013-08-06 11:06:00,63.5,50.7,29.99,ESE,109,7.4,7.4,63,0.00,,---,0.00,463.14,VWS V14.01,2013-08-06 18:06:00,
2013-08-06 11:11:00,63.7,50.8,29.99,ESE,110,7.6,7.6,63,0.00,,---,0.00,469.02,VWS V14.01,2013-08-06 18:11:00,
2013-08-06 11:16:00,63.9,50.8,29.98,ESE,107,7.8,8.3,62,0.00,,---,0.00,479.62,VWS V14.01,2013-08-06 18:16:00,
2013-08-06 11:21:00,64.4,51.1,29.99,East,92,7.2,7.2,62,0.00,,---,0.00,485.04,VWS V14.01,2013-08-06 18:21:00,
2013-08-06 11:26:00,64.6,51.0,29.99,East,100,5.8,7.6,61,0.00,,---,0.00,490.77,VWS V14.01,2013-08-06 18:26:00,
2013-08-06 11:31:00,64.9,51.1,29.99,East,94,8.1,8.1,61,0.00,,---,0.00,485.65,VWS V14.01,2013-08-06 18:31:00,
2013-08-06 11:36:00,65.7,51.0,29.99,ESE,112,8.3,8.3,59,0.00,,---,0.00,505.11,VWS V14.01,2013-08-06 18:36:00,
2013-08-06 11:41:00,65.8,51.2,29.99,SE,142,6.0,6.0,59,0.00,,---,0.00,505.19,VWS V14.01,2013-08-06 18:41:00,
2013-08-06 11:46:00,65.5,51.1,29.98,East,99,7.6,8.5,60,0.00,,---,0.00,502.21,VWS V14.01,2013-08-06 18:46:00,
2013-08-06 11:51:00,65.3,51.1,29.98,ESE,113,8.1,8.1,60,0.00,,---,0.00,506.49,VWS V14.01,2013-08-06 18:51:00,
2013-08-06 11:56:00,65.8,51.8,29.98,East,88,8.5,8.5,60,0.00,,---,0.00,513.89,VWS V14.01,2013-08-06 18:56:00,
2013-08-06 12:01:00,66.4,52.0,29.98,North,0,5.6,8.7,60,0.00,,---,0.00,520.53,VWS V14.01,2013-08-06 19:01:00,
2013-08-06 12:06:00,67.3,52.2,29.73,ESE,109,6.0,8.3,58,0.00,,---,0.00,522.21,VWS V14.01,2013-08-06 19:06:00,
2013-08-06 12:11:00,67.1,52.1,29.98,East,97,4.3,7.6,59,0.00,,---,0.00,526.71,VWS V14.01,2013-08-06 19:11:00,
2013-08-06 12:16:00,67.5,52.0,29.98,ESE,105,7.8,7.8,58,0.00,,---,0.00,524.04,VWS V14.01,2013-08-06 19:16:00,
2013-08-06 12:21:00,67.6,52.2,29.98,ESE,111,6.3,8.1,58,0.00,,---,0.00,536.25,VWS V14.01,2013-08-06 19:21:00,
2013-08-06 12:26:00,68.0,52.4,29.98,ESE,107,4.3,4.3,57,0.00,,---,0.00,533.12,VWS V14.01,2013-08-06 19:26:00,
2013-08-06 12:31:00,68.4,52.5,29.98,ESE,104,6.5,7.6,57,0.00,,---,0.00,537.78,VWS V14.01,2013-08-06 19:31:00,
2013-08-06 12:36:00,68.4,52.4,29.98,SE,126,5.8,5.8,57,0.00,,---,0.00,544.41,VWS V14.01,2013-08-06 19:36:00,
2013-08-06 12:41:00,69.1,52.7,29.98,SE,135,6.7,6.7,56,0.00,,---,0.00,544.26,VWS V14.01,2013-08-06 19:41:00,
2013-08-06 12:46:00,69.3,52.5,29.98,East,99,5.8,5.8,55,0.00,,---,0.00,540.98,VWS V14.01,2013-08-06 19:46:00,
2013-08-06 12:51:00,69.3,52.6,29.98,ESE,106,4.3,6.9,55,0.00,,---,0.00,549.91,VWS V14.01,2013-08-06 19:51:00,
2013-08-06 12:56:00,69.8,52.8,29.98,ESE,106,6.9,8.1,55,0.00,,---,0.00,545.48,VWS V14.01,2013-08-06 19:56:00,
2013-08-06 13:01:00,70.0,52.8,29.98,East,91,5.6,8.1,54,0.00,,---,0.00,554.79,VWS V14.01,2013-08-06 20:01:00,
2013-08-06 13:06:00,70.7,53.3,29.98,SE,137,2.5,2.5,54,0.00,,---,0.00,550.06,VWS V14.01,2013-08-06 20:06:00,
2013-08-06 13:11:00,71.1,52.8,29.98,ESE,116,6.5,6.5,52,0.00,,---,0.00,553.04,VWS V14.01,2013-08-06 20:11:00,
2013-08-06 13:16:00,71.2,52.7,29.98,ESE,116,6.3,6.3,52,0.00,,---,0.00,554.56,VWS V14.01,2013-08-06 20:16:00,
2013-08-06 13:21:00,72.1,53.0,29.98,East,101,4.3,4.3,51,0.00,,---,0.00,557.23,VWS V14.01,2013-08-06 20:21:00,
2013-08-06 13:26:00,72.5,52.8,29.98,East,100,4.9,4.9,50,0.00,,---,0.00,556.32,VWS V14.01,2013-08-06 20:26:00,
2013-08-06 13:31:00,72.7,52.9,29.97,East,88,3.6,3.6,50,0.00,,---,0.00,553.88,VWS V14.01,2013-08-06 20:31:00,
2013-08-06 13:32:00,72.9,52.6,29.97,ESE,117,6.0,6.0,49,0.00,,---,0.00,558.61,VWS V14.01,2013-08-06 20:32:00,
2013-08-06 13:37:00,73.8,52.8,29.97,East,82,6.3,6.3,48,0.00,,---,0.00,553.42,VWS V14.01,2013-08-06 20:37:00,
2013-08-06 13:42:00,72.9,52.5,29.97,East,96,6.0,6.0,49,0.00,,---,0.00,559.37,VWS V14.01,2013-08-06 20:42:00,
2013-08-06 13:47:00,73.6,52.9,29.97,ESE,106,4.9,5.8,48,0.00,,---,0.00,563.42,VWS V14.01,2013-08-06 20:47:00,
2013-08-06 13:52:00,73.9,53.0,29.97,East,95,4.5,4.5,48,0.00,,---,0.00,551.66,VWS V14.01,2013-08-06 20:52:00,
2013-08-06 13:57:00,73.0,52.8,29.97,SE,133,4.9,7.6,49,0.00,,---,0.00,557.77,VWS V14.01,2013-08-06 20:57:00,
2013-08-06 14:02:00,73.6,52.9,29.97,SE,126,4.5,5.1,48,0.00,,---,0.00,546.63,VWS V14.01,2013-08-06 21:02:00,
2013-08-06 14:07:00,74.3,52.6,29.97,ESE,121,6.3,6.3,47,0.00,,---,0.00,549.45,VWS V14.01,2013-08-06 21:07:00,
2013-08-06 14:12:00,72.7,52.2,29.97,ESE,118,8.1,8.1,48,0.00,,---,0.00,541.74,VWS V14.01,2013-08-06 21:12:00,
2013-08-06 14:17:00,73.2,52.4,29.97,ESE,114,6.3,6.3,48,0.00,,---,0.00,540.75,VWS V14.01,2013-08-06 21:17:00,
2013-08-06 14:22:00,75.0,52.7,29.97,SE,131,5.8,5.8,46,0.00,,---,0.00,538.61,VWS V14.01,2013-08-06 21:22:00,
2013-08-06 14:27:00,74.1,51.8,29.97,ESE,113,7.4,7.4,46,0.00,,---,0.00,537.32,VWS V14.01,2013-08-06 21:27:00,
2013-08-06 14:32:00,73.8,51.8,29.96,ESE,103,7.8,7.8,46,0.00,,---,0.00,533.96,VWS V14.01,2013-08-06 21:32:00,
2013-08-06 14:37:00,73.9,52.1,29.96,East,96,5.8,7.2,46,0.00,,---,0.00,530.37,VWS V14.01,2013-08-06 21:37:00,
2013-08-06 14:42:00,74.7,52.4,29.96,ESE,103,4.9,6.0,46,0.00,,---,0.00,525.64,VWS V14.01,2013-08-06 21:42:00,
2013-08-06 14:47:00,75.9,52.4,29.96,ESE,119,4.7,4.9,44,0.00,,---,0.00,526.18,VWS V14.01,2013-08-06 21:47:00,
2013-08-06 14:52:00,75.4,51.6,29.96,ESE,120,6.0,6.0,43,0.00,,---,0.00,520.91,VWS V14.01,2013-08-06 21:52:00,
2013-08-06 14:57:00,76.8,51.4,29.96,East,101,6.7,6.7,41,0.00,,---,0.00,524.57,VWS V14.01,2013-08-06 21:57:00,
2013-08-06 15:02:00,77.9,51.0,29.95,ENE,62,6.0,6.0,39,0.00,,---,0.00,519.77,VWS V14.01,2013-08-06 22:02:00,
2013-08-06 15:07:00,79.9,46.0,29.95,SSE,147,6.0,6.0,30,0.00,,---,0.00,516.10,VWS V14.01,2013-08-06 22:07:00,
2013-08-06 15:12:00,79.5,50.5,29.95,ESE,113,2.7,3.8,36,0.00,,---,0.00,502.67,VWS V14.01,2013-08-06 22:12:00,
2013-08-06 15:17:00,77.4,50.6,29.95,East,89,0.7,0.7,39,0.00,,---,0.00,496.80,VWS V14.01,2013-08-06 22:17:00,
2013-08-06 16:03:00,80.2,49.0,29.94,ESE,121,2.9,2.9,34,0.00,,---,0.00,437.27,VWS V14.01,2013-08-06 23:03:00,
2013-08-06 16:08:00,80.1,49.0,29.94,SE,145,1.3,1.3,34,0.00,,---,0.00,433.53,VWS V14.01,2013-08-06 23:08:00,
2013-08-06 16:13:00,80.4,48.2,29.94,East,100,3.6,5.6,32,0.00,,---,0.00,432.69,VWS V14.01,2013-08-06 23:13:00,
2013-08-06 16:18:00,81.3,47.9,29.94,ESE,117,5.8,5.8,31,0.00,,---,0.00,420.33,VWS V14.01,2013-08-06 23:18:00,
2013-08-06 16:23:00,80.6,47.5,29.94,East,84,4.7,4.7,31,0.00,,---,0.00,414.22,VWS V14.01,2013-08-06 23:23:00,
2013-08-06 16:28:00,79.9,48.1,29.94,ESE,113,5.1,5.1,33,0.00,,---,0.00,403.39,VWS V14.01,2013-08-06 23:28:00,
2013-08-06 16:33:00,80.8,48.4,29.93,East,86,4.0,4.0,32,0.00,,---,0.00,405.60,VWS V14.01,2013-08-06 23:33:00,
2013-08-06 16:38:00,82.4,49.9,29.93,East,94,1.1,1.1,32,0.00,,---,0.00,398.50,VWS V14.01,2013-08-06 23:38:00,
2013-08-06 16:43:00,82.0,49.6,29.93,East,87,6.7,6.7,32,0.00,,---,0.00,379.20,VWS V14.01,2013-08-06 23:43:00,
2013-08-06 16:48:00,80.6,49.8,29.93,ESE,123,4.9,4.9,34,0.00,,---,0.00,374.47,VWS V14.01,2013-08-06 23:48:00,
2013-08-06 16:53:00,81.9,50.7,29.93,East,98,2.5,2.5,34,0.00,,---,0.00,368.67,VWS V14.01,2013-08-06 23:53:00,
2013-08-06 16:58:00,82.2,50.5,29.93,SE,126,2.7,2.7,33,0.00,,---,0.00,356.30,VWS V14.01,2013-08-06 23:58:00,
2013-08-06 17:03:00,82.9,50.3,29.93,SSW,194,2.9,3.6,32,0.00,,---,0.00,350.20,VWS V14.01,2013-08-07 00:03:00,
2013-08-06 17:08:00,81.7,50.1,29.93,South,174,4.9,4.9,33,0.00,,---,0.00,348.21,VWS V14.01,2013-08-07 00:08:00,
2013-08-06 17:13:00,82.0,50.5,29.93,SSW,192,6.9,6.9,34,0.00,,---,0.00,339.21,VWS V14.01,2013-08-07 00:13:00,
2013-08-06 17:18:00,82.4,50.3,29.93,South,171,6.7,6.7,33,0.00,,---,0.00,331.27,VWS V14.01,2013-08-07 00:18:00,
2013-08-06 17:23:00,81.7,49.6,29.93,SW,220,6.0,6.0,33,0.00,,---,0.00,314.71,VWS V14.01,2013-08-07 00:23:00,
2013-08-06 17:28:00,81.3,49.7,29.92,SSW,197,3.1,3.1,33,0.00,,---,0.00,309.68,VWS V14.01,2013-08-07 00:28:00,
2013-08-06 17:33:00,81.3,49.8,29.92,SSW,194,7.8,8.1,33,0.00,,---,0.00,301.21,VWS V14.01,2013-08-07 00:33:00,
2013-08-06 17:38:00,81.7,50.0,29.92,SW,216,3.8,3.8,33,0.00,,---,0.00,295.71,VWS V14.01,2013-08-07 00:38:00,
2013-08-06 17:43:00,81.7,49.7,29.92,South,184,8.7,8.7,33,0.00,,---,0.00,274.50,VWS V14.01,2013-08-07 00:43:00,
2013-08-06 17:48:00,81.5,50.1,29.92,SSW,196,8.1,8.1,34,0.00,,---,0.00,278.31,VWS V14.01,2013-08-07 00:48:00,
2013-08-06 17:53:00,81.3,50.1,29.92,South,175,7.2,7.2,34,0.00,,---,0.00,265.34,VWS V14.01,2013-08-07 00:53:00,
2013-08-06 17:58:00,80.8,49.8,29.92,SSW,194,7.2,7.2,34,0.00,,---,0.00,253.89,VWS V14.01,2013-08-07 00:58:00,
2013-08-06 18:03:00,81.5,51.1,29.92,SSE,162,2.5,2.5,35,0.00,,---,0.00,250.08,VWS V14.01,2013-08-07 01:03:00,
2013-08-06 18:08:00,80.8,50.1,29.92,SW,226,3.4,3.4,34,0.00,,---,0.00,233.21,VWS V14.01,2013-08-07 01:08:00,
2013-08-06 18:13:00,80.8,50.3,29.92,SSW,207,4.7,4.7,35,0.00,,---,0.00,229.93,VWS V14.01,2013-08-07 01:13:00,
2013-08-06 18:18:00,81.0,50.5,29.92,South,170,2.2,4.7,35,0.00,,---,0.00,223.67,VWS V14.01,2013-08-07 01:18:00,
2013-08-06 18:23:00,81.0,50.8,29.91,SSW,213,3.4,3.4,35,0.00,,---,0.00,211.31,VWS V14.01,2013-08-07 01:23:00,
2013-08-06 18:28:00,81.1,50.3,29.91,South,191,5.4,5.8,34,0.00,,---,0.00,201.16,VWS V14.01,2013-08-07 01:28:00,
2013-08-06 18:33:00,80.4,50.4,29.91,SSW,196,5.1,5.1,35,0.00,,---,0.00,192.54,VWS V14.01,2013-08-07 01:33:00,
2013-08-06 18:38:00,80.6,50.3,29.91,SW,218,8.5,8.5,35,0.00,,---,0.00,172.77,VWS V14.01,2013-08-07 01:38:00,
2013-08-06 19:33:00,75.9,48.5,29.90,SSW,213,10.7,10.7,38,0.00,,---,0.00,81.73,VWS V14.01,2013-08-07 02:33:00,
2013-08-06 19:38:00,75.7,48.0,29.90,SSW,200,7.6,7.6,38,0.00,,---,0.00,66.47,VWS V14.01,2013-08-07 02:38:00,
2013-08-06 19:43:00,75.6,47.8,29.90,SW,219,8.7,8.7,37,0.00,,---,0.00,66.70,VWS V14.01,2013-08-07 02:43:00,
2013-08-06 19:48:00,75.4,47.8,29.91,SSW,213,8.7,8.7,38,0.00,,---,0.00,50.98,VWS V14.01,2013-08-07 02:48:00,
2013-08-06 19:53:00,75.2,47.9,29.90,SW,222,8.5,8.5,38,0.00,,---,0.00,47.62,VWS V14.01,2013-08-07 02:53:00,
2013-08-06 19:58:00,74.5,48.2,29.91,SW,222,7.8,9.2,39,0.00,,---,0.00,42.89,VWS V14.01,2013-08-07 02:58:00,
2013-08-06 20:03:00,74.1,48.7,29.91,SW,223,6.9,6.9,41,0.00,,---,0.00,33.12,VWS V14.01,2013-08-07 03:03:00,
2013-08-06 20:08:00,73.4,48.8,29.90,SSW,210,7.2,8.5,42,0.00,,---,0.00,29.99,VWS V14.01,2013-08-07 03:08:00,
2013-08-06 20:13:00,72.9,49.0,29.90,SW,215,6.5,6.5,43,0.00,,---,0.00,2.29,VWS V14.01,2013-08-07 03:13:00,
2013-08-06 20:18:00,72.1,49.5,29.91,SSW,207,11.9,11.9,45,0.00,,---,0.00,2.44,VWS V14.01,2013-08-07 03:18:00,
2013-08-06 20:23:00,71.4,49.4,29.91,SSW,213,8.5,9.6,46,0.00,,---,0.00,3.89,VWS V14.01,2013-08-07 03:23:00,
2013-08-06 20:28:00,71.1,49.1,29.91,SSW,205,8.1,8.1,46,0.00,,---,0.00,3.97,VWS V14.01,2013-08-07 03:28:00,
2013-08-06 20:33:00,70.9,48.7,29.91,SW,214,11.4,11.4,45,0.00,,---,0.00,6.49,VWS V14.01,2013-08-07 03:33:00,
2013-08-06 20:38:00,70.7,48.6,29.91,SW,221,9.8,11.6,45,0.00,,---,0.00,6.49,VWS V14.01,2013-08-07 03:38:00,
2013-08-06 21:04:00,68.4,48.2,29.97,SW,219,11.6,11.6,48,0.00,,---,0.00,0.00,VWS V14.01,2013-08-07 04:04:00,
2013-08-06 21:09:00,68.4,48.2,29.97,SW,219,11.6,11.6,48,0.00,,---,0.00,0.00,VWS V14.01,2013-08-07 04:09:00,
2013-08-06 21:53:00,67.6,48.6,29.92,NW,317,2.9,2.9,50,0.00,,---,0.00,1.45,VWS V14.01,2013-08-07 04:53:00,
2013-08-06 21:58:00,67.6,48.4,29.92,WNW,294,2.0,2.7,50,0.00,,---,0.00,0.00,VWS V14.01,2013-08-07 04:58:00,
2013-08-06 22:01:00,67.6,48.5,29.92,WNW,301,0.9,2.0,50,0.00,,---,0.00,1.22,VWS V14.01,2013-08-07 05:01:00,
2013-08-06 22:03:00,67.6,48.5,29.92,WNW,301,0.9,2.0,50,0.00,,---,0.00,1.22,VWS V14.01,2013-08-07 05:03:00,
2013-08-06 22:08:00,67.6,48.5,29.92,WNW,301,0.9,2.0,50,0.00,,---,0.00,1.22,VWS V14.01,2013-08-07 05:08:00,
2013-08-06 22:19:00,67.6,48.5,29.92,WNW,301,0.9,2.0,50,0.00,,---,0.00,1.22,VWS V14.01,2013-08-07 05:19:00,
2013-08-06 22:44:00,67.6,48.5,29.92,WNW,301,0.9,2.0,50,0.00,,---,0.00,1.22,VWS V14.01,2013-08-07 05:44:00,
2013-08-06 22:49:00,67.6,48.5,29.92,WNW,301,0.9,2.0,50,0.00,,---,0.00,1.22,VWS V14.01,2013-08-07 05:49:00,
2013-08-06 22:54:00,67.6,48.5,29.92,WNW,301,0.9,2.0,50,0.00,,---,0.00,1.22,VWS V14.01,2013-08-07 05:54:00,
2013-08-06 22:59:00,67.6,48.5,29.92,WNW,301,0.9,2.0,50,0.00,,---,0.00,1.22,VWS V14.01,2013-08-07 05:59:00,